createdAt,value
2019-04-23T00:02:24.143Z,56.70
2019-04-23T00:04:48.019Z,56.60
2019-04-23T00:07:25.897Z,56.50
2019-04-23T00:09:47.033Z,56.50
2019-04-23T00:12:20.316Z,56.50
2019-04-23T00:15:03.352Z,56.60
2019-04-23T00:17:17.915Z,56.90
2019-04-23T00:19:45.154Z,56.70
2019-04-23T00:22:15.111Z,56.50
2019-04-23T00:25:12.146Z,56.70
2019-04-23T00:27:27.523Z,56.90
2019-04-23T00:29:47.335Z,56.90
2019-04-23T00:32:15.161Z,57.10
2019-04-23T00:34:42.077Z,56.80
2019-04-23T00:37:13.237Z,57.60
2019-04-23T00:39:36.120Z,57.00
2019-04-23T00:42:06.674Z,56.80
2019-04-23T00:44:32.469Z,56.90
2019-04-23T00:47:01.364Z,56.90
2019-04-23T00:49:25.557Z,56.90
2019-04-23T00:51:59.007Z,56.90
2019-04-23T00:54:28.815Z,57.00
2019-04-23T00:56:55.423Z,57.10
2019-04-23T00:59:24.503Z,57.00
2019-04-23T01:01:56.870Z,57.60
2019-04-23T01:04:22.827Z,57.10
2019-04-23T01:06:46.095Z,57.00
2019-04-23T01:09:14.240Z,57.10
2019-04-23T01:11:43.486Z,57.10
2019-04-23T01:14:08.126Z,57.10
2019-04-23T01:16:37.990Z,56.90
2019-04-23T01:19:07.219Z,56.80
2019-04-23T01:21:18.261Z,56.90
2019-04-23T01:23:54.843Z,56.90
2019-04-23T01:26:34.401Z,56.70
2019-04-23T01:29:13.578Z,56.80
2019-04-23T01:31:43.423Z,57.00
2019-04-23T01:34:14.623Z,57.00
2019-04-23T01:36:52.220Z,56.70
2019-04-23T01:39:09.834Z,56.80
2019-04-23T01:41:33.793Z,56.80
2019-04-23T01:43:56.331Z,56.70
2019-04-23T01:46:35.740Z,57.10
2019-04-23T01:48:58.271Z,56.80
2019-04-23T01:51:38.173Z,56.80
2019-04-23T01:54:10.908Z,57.20
2019-04-23T01:56:24.277Z,57.20
2019-04-23T01:58:51.897Z,56.80
2019-04-23T02:01:16.058Z,56.80
2019-04-23T02:08:48.700Z,57.10
2019-04-23T02:11:25.538Z,57.20
2019-04-23T02:13:42.105Z,57.10
2019-04-23T02:16:24.698Z,57.10
2019-04-23T02:18:38.851Z,57.30
2019-04-23T02:21:10.308Z,57.60
2019-04-23T02:26:09.050Z,57.60
2019-04-23T02:31:24.553Z,57.60
2019-04-23T02:33:46.802Z,57.40
2019-04-23T02:36:07.932Z,57.60
2019-04-23T02:38:52.274Z,57.60
2019-04-23T02:41:18.482Z,57.30
2019-04-23T02:43:21.839Z,57.40
2019-04-23T02:50:54.169Z,58.30
2019-04-23T02:53:39.982Z,57.70
2019-04-23T02:58:26.033Z,57.60
2019-04-23T03:01:06.479Z,57.40
2019-04-23T03:03:25.749Z,57.50
2019-04-23T03:05:54.550Z,57.40
2019-04-23T03:08:17.109Z,57.60
2019-04-23T03:13:19.758Z,58.40
2019-04-23T03:15:52.257Z,58.50
2019-04-23T03:26:43.410Z,57.90
2019-04-23T03:29:05.708Z,58.60
2019-04-23T03:41:21.628Z,58.20
2019-04-23T03:43:43.097Z,58.00
2019-04-23T03:51:11.395Z,57.70
2019-04-23T03:56:13.466Z,57.70
2019-04-23T03:58:39.056Z,57.80
2019-04-23T04:01:07.852Z,57.90
2019-04-23T04:04:18.995Z,57.80
2019-04-23T04:11:09.969Z,57.70
2019-04-23T04:18:31.013Z,57.80
2019-04-23T04:21:01.141Z,57.60
2019-04-23T04:23:22.653Z,57.50
2019-04-23T04:25:49.927Z,57.60
2019-04-23T04:30:43.825Z,57.40
2019-04-23T04:33:29.893Z,57.30
2019-04-23T04:35:50.117Z,57.50
2019-04-23T04:38:38.666Z,57.30
2019-04-23T04:41:01.301Z,57.50
2019-04-23T04:43:22.548Z,57.40
2019-04-23T04:45:49.813Z,57.60
2019-04-23T04:48:09.875Z,57.40
2019-04-23T04:50:45.882Z,57.50
2019-04-23T04:53:12.070Z,57.60
2019-04-23T04:55:36.592Z,57.60
2019-04-23T04:58:07.121Z,57.30
2019-04-23T05:03:19.363Z,57.40
2019-04-23T05:08:15.573Z,57.20
2019-04-23T05:10:43.669Z,57.30
2019-04-23T05:13:22.382Z,57.10
2019-04-23T05:15:39.132Z,57.10
2019-04-23T05:23:25.561Z,57.20
2019-04-23T05:25:40.061Z,57.30
2019-04-23T05:30:52.159Z,57.30
2019-04-23T05:36:04.573Z,57.20
2019-04-23T05:38:18.639Z,57.20
2019-04-23T05:42:58.714Z,57.30
2019-04-23T05:45:29.839Z,57.30
2019-04-23T05:48:11.751Z,57.30
2019-04-23T05:50:35.748Z,57.40
2019-04-23T05:52:52.825Z,57.20
2019-04-23T05:55:19.048Z,57.40
2019-04-23T05:57:42.499Z,57.30
2019-04-23T06:00:16.121Z,57.30
2019-04-23T06:02:48.494Z,57.40
2019-04-23T06:05:22.429Z,57.30
2019-04-23T06:07:42.631Z,57.50
2019-04-23T06:10:14.977Z,57.50
2019-04-23T06:12:39.961Z,57.70
2019-04-23T06:15:05.221Z,57.60
2019-04-23T06:17:29.880Z,57.40
2019-04-23T06:20:07.841Z,57.40
2019-04-23T06:22:36.953Z,57.30
2019-04-23T06:24:57.900Z,57.50
2019-04-23T06:27:49.431Z,57.40
2019-04-23T06:29:59.477Z,57.40
2019-04-23T06:32:25.986Z,57.50
2019-04-23T06:34:54.993Z,57.70
2019-04-23T06:37:29.248Z,57.80
2019-04-23T06:39:48.435Z,57.80
2019-04-23T06:42:27.884Z,58.00
2019-04-23T06:44:57.606Z,57.70
2019-04-23T06:47:21.956Z,57.80
2019-04-23T06:54:56.191Z,57.90
2019-04-23T06:57:22.493Z,57.60
2019-04-23T06:59:59.177Z,57.70
2019-04-23T07:04:49.850Z,57.70
2019-04-23T07:09:40.084Z,57.50
2019-04-23T07:12:08.682Z,57.10
2019-04-23T07:14:44.553Z,58.20
2019-04-23T07:17:03.847Z,58.20
2019-04-23T07:19:37.149Z,57.90
2019-04-23T07:22:08.203Z,58.50
2019-04-23T07:24:29.862Z,58.70
2019-04-23T07:26:53.104Z,58.60
2019-04-23T07:29:30.907Z,58.60
2019-04-23T07:34:39.787Z,58.70
2019-04-23T07:36:57.219Z,61.00
2019-04-23T07:39:35.639Z,59.70
2019-04-23T07:44:49.629Z,58.70
2019-04-23T07:47:33.704Z,58.70
2019-04-23T07:50:06.250Z,59.80
2019-04-23T07:52:24.564Z,60.20
2019-04-23T07:54:54.388Z,60.50
2019-04-23T07:57:21.902Z,60.20
2019-04-23T07:59:48.679Z,59.80
2019-04-23T08:02:21.828Z,59.90
2019-04-23T08:04:54.490Z,60.10
2019-04-23T08:07:17.930Z,59.70
2019-04-23T08:09:44.010Z,59.50
2019-04-23T08:12:16.462Z,59.70
2019-04-23T08:14:44.763Z,59.40
2019-04-23T08:17:05.483Z,60.80
2019-04-23T08:19:42.583Z,59.50
2019-04-23T08:22:08.675Z,59.40
2019-04-23T08:24:45.378Z,59.10
2019-04-23T08:27:22.400Z,59.10
2019-04-23T08:29:48.851Z,59.10
2019-04-23T08:32:16.832Z,59.00
2019-04-23T08:37:15.018Z,59.20
2019-04-23T08:42:28.446Z,59.20
2019-04-23T08:44:46.194Z,59.20
2019-04-23T08:47:20.257Z,59.20
2019-04-23T08:52:11.620Z,59.40
2019-04-23T08:54:47.911Z,59.70
2019-04-23T08:57:08.874Z,59.70
2019-04-23T08:59:48.609Z,59.90
2019-04-23T09:04:40.085Z,59.40
2019-04-23T09:07:12.823Z,59.80
2019-04-23T09:09:34.683Z,59.70
2019-04-23T09:11:58.094Z,59.50
2019-04-23T09:14:24.385Z,59.50
2019-04-23T09:17:01.300Z,59.50
2019-04-23T09:22:03.341Z,58.90
2019-04-23T09:24:22.826Z,59.60
2019-04-23T09:26:56.407Z,59.60
2019-04-23T09:29:23.090Z,59.60
2019-04-23T09:34:43.166Z,59.30
2019-04-23T09:37:10.095Z,60.20
2019-04-23T09:39:44.516Z,62.70
2019-04-23T09:42:17.133Z,62.30
2019-04-23T09:44:56.852Z,62.00
2019-04-23T09:47:24.542Z,61.70
2019-04-23T09:49:42.465Z,61.30
2019-04-23T09:52:14.686Z,61.40
2019-04-23T09:57:03.905Z,61.20
2019-04-23T09:59:39.446Z,62.10
2019-04-23T10:01:54.097Z,60.70
2019-04-23T10:04:20.712Z,61.20
2019-04-23T10:06:38.941Z,61.10
2019-04-23T10:09:04.445Z,61.30
2019-04-23T10:11:30.520Z,61.10
2019-04-23T10:13:58.597Z,61.00
2019-04-23T10:16:27.923Z,60.90
2019-04-23T10:18:53.407Z,60.90
2019-04-23T10:21:21.340Z,60.90
2019-04-23T10:23:55.017Z,60.70
2019-04-23T10:26:21.902Z,60.70
2019-04-23T10:28:51.924Z,60.60
2019-04-23T10:31:18.900Z,60.50
2019-04-23T10:33:46.133Z,60.50
2019-04-23T10:36:15.827Z,60.20
2019-04-23T10:38:49.511Z,60.10
2019-04-23T10:41:15.978Z,60.20
2019-04-23T10:43:54.944Z,60.10
2019-04-23T10:46:53.687Z,60.00
2019-04-23T10:52:12.931Z,60.00
2019-04-23T10:54:41.934Z,60.00
2019-04-23T10:57:06.668Z,60.00
2019-04-23T11:02:26.625Z,60.00
2019-04-23T11:09:59.329Z,59.20
2019-04-23T11:12:37.041Z,59.20
2019-04-23T11:14:58.430Z,60.90
2019-04-23T11:17:27.896Z,60.10
2019-04-23T11:22:42.660Z,59.60
2019-04-23T11:27:14.664Z,59.10
2019-04-23T11:29:40.474Z,58.80
2019-04-23T11:32:30.645Z,58.60
2019-04-23T11:35:04.873Z,58.60
2019-04-23T11:37:29.854Z,58.60
2019-04-23T11:40:16.975Z,58.70
2019-04-23T11:42:38.003Z,58.80
2019-04-23T11:45:06.966Z,58.80
2019-04-23T11:48:12.330Z,58.80
2019-04-23T11:50:39.584Z,58.80
2019-04-23T11:58:09.837Z,58.50
2019-04-23T12:00:44.944Z,58.50
2019-04-23T12:03:37.211Z,58.50
2019-04-23T12:06:25.107Z,58.50
2019-04-23T12:08:57.033Z,58.50
2019-04-23T12:17:08.172Z,58.50
2019-04-23T12:24:58.817Z,58.50
2019-04-23T12:29:44.046Z,58.50
2019-04-23T12:37:39.337Z,58.40
2019-04-23T12:45:32.081Z,58.20
2019-04-23T12:50:46.836Z,58.20
2019-04-23T12:53:25.824Z,58.00
2019-04-23T12:58:11.470Z,57.90
2019-04-23T13:00:36.401Z,57.90
2019-04-23T13:03:18.674Z,57.80
2019-04-23T13:05:42.328Z,53.00
2019-04-23T13:11:10.129Z,52.00
2019-04-23T13:13:58.706Z,52.30
2019-04-23T13:16:25.247Z,52.10
2019-04-23T13:18:49.546Z,52.10
2019-04-23T13:21:45.231Z,47.70
2019-04-23T13:23:55.786Z,47.90
2019-04-23T13:26:31.179Z,49.60
2019-04-23T13:29:11.507Z,49.30
2019-04-23T13:31:29.287Z,49.60
2019-04-23T13:34:13.976Z,49.40
2019-04-23T13:39:10.268Z,49.80
2019-04-23T13:41:47.838Z,50.00
2019-04-23T13:44:10.964Z,50.30
2019-04-23T13:46:49.512Z,50.50
2019-04-23T13:49:22.508Z,50.70
2019-04-23T13:51:41.311Z,50.80
2019-04-23T13:54:24.107Z,51.10
2019-04-23T13:59:16.328Z,51.50
2019-04-23T14:04:16.765Z,51.80
2019-04-23T14:09:17.244Z,52.10
2019-04-23T14:11:34.279Z,52.30
2019-04-23T14:16:39.698Z,52.70
2019-04-23T14:19:02.331Z,52.70
2019-04-23T14:21:35.202Z,52.90
2019-04-23T14:24:08.277Z,53.00
2019-04-23T14:26:32.514Z,53.10
2019-04-23T14:28:52.984Z,53.10
2019-04-23T14:31:23.164Z,53.10
2019-04-23T14:38:54.532Z,53.40
2019-04-23T14:43:56.589Z,53.60
2019-04-23T14:46:45.576Z,53.60
2019-04-23T14:48:53.888Z,53.80
2019-04-23T14:53:46.485Z,53.90
2019-04-23T15:01:21.663Z,54.70
2019-04-23T15:06:19.361Z,54.00
2019-04-23T15:08:40.375Z,54.10
2019-04-23T15:11:11.901Z,54.20
2019-04-23T15:16:09.804Z,54.40
2019-04-23T15:18:44.974Z,54.40
2019-04-23T15:21:42.832Z,54.40
2019-04-23T15:28:12.109Z,54.60
2019-04-23T15:31:10.109Z,54.80
2019-04-23T15:33:38.871Z,54.90
2019-04-23T15:36:27.417Z,54.90
2019-04-23T15:38:43.591Z,54.90
2019-04-23T15:41:02.647Z,54.90
2019-04-23T15:43:22.828Z,55.00
2019-04-23T15:46:02.913Z,55.00
2019-04-23T15:48:26.033Z,55.00
2019-04-23T15:50:58.158Z,54.90
2019-04-23T15:53:11.347Z,55.10
2019-04-23T15:55:49.327Z,55.10
2019-04-23T15:58:35.776Z,55.10
2019-04-23T16:01:17.281Z,55.10
2019-04-23T16:03:13.577Z,55.00
2019-04-23T16:05:39.171Z,55.10
2019-04-23T16:08:43.455Z,55.30
2019-04-23T16:11:15.717Z,55.10
2019-04-23T16:13:36.835Z,54.80
2019-04-23T16:16:03.607Z,55.10
2019-04-23T16:18:37.024Z,55.30
2019-04-23T16:21:15.899Z,55.60
2019-04-23T16:23:37.750Z,55.60
2019-04-23T16:26:05.725Z,55.40
2019-04-23T16:28:42.280Z,55.20
2019-04-23T16:31:03.216Z,55.10
2019-04-23T16:33:16.294Z,55.20
2019-04-23T16:38:34.177Z,55.20
2019-04-23T16:40:57.075Z,55.50
2019-04-23T16:43:19.864Z,55.10
2019-04-23T16:45:53.161Z,55.20
2019-04-23T16:48:42.632Z,55.20
2019-04-23T16:51:05.316Z,55.30
2019-04-23T16:55:52.139Z,55.70
2019-04-23T16:58:21.481Z,55.60
2019-04-23T17:00:51.700Z,55.30
2019-04-23T17:05:39.519Z,55.50
2019-04-23T17:08:30.944Z,55.50
2019-04-23T17:10:38.801Z,55.40
2019-04-23T17:15:36.705Z,55.50
2019-04-23T17:18:07.316Z,55.40
2019-04-23T17:20:31.195Z,55.90
2019-04-23T17:23:05.501Z,55.50
2019-04-23T17:25:29.442Z,55.40
2019-04-23T17:28:03.618Z,55.50
2019-04-23T17:33:02.731Z,55.40
2019-04-23T17:35:24.367Z,55.40
2019-04-23T17:38:03.757Z,55.30
2019-04-23T17:40:39.456Z,55.20
2019-04-23T17:43:08.868Z,55.20
2019-04-23T17:45:48.663Z,55.50
2019-04-23T17:48:22.076Z,55.70
2019-04-23T17:56:04.014Z,56.40
2019-04-23T17:58:15.699Z,56.70
2019-04-23T18:00:54.380Z,56.80
2019-04-23T18:03:30.145Z,53.50
2019-04-23T18:05:40.862Z,54.80
2019-04-23T18:08:15.532Z,55.40
2019-04-23T18:10:41.582Z,54.20
2019-04-23T18:13:08.512Z,54.50
2019-04-23T18:15:35.155Z,54.10
2019-04-23T18:18:10.082Z,54.70
2019-04-23T18:20:45.598Z,55.40
2019-04-23T18:23:09.615Z,55.10
2019-04-23T18:25:45.851Z,55.10
2019-04-23T18:28:08.579Z,55.30
2019-04-23T18:31:12.932Z,56.00
2019-04-23T18:36:08.437Z,55.90
2019-04-23T18:38:50.126Z,55.80
2019-04-23T18:43:32.975Z,55.90
2019-04-23T18:46:08.706Z,55.80
2019-04-23T18:51:05.054Z,56.00
2019-04-23T18:53:45.613Z,55.90
2019-04-23T18:58:44.758Z,55.90
2019-04-23T19:03:53.482Z,55.80
2019-04-23T19:06:27.131Z,56.40
2019-04-23T19:11:43.899Z,56.70
2019-04-23T19:14:02.399Z,56.80
2019-04-23T19:16:36.136Z,56.80
2019-04-23T19:18:56.326Z,56.90
2019-04-23T19:24:03.338Z,57.70
2019-04-23T19:26:32.959Z,57.00
2019-04-23T19:29:07.006Z,58.10
2019-04-23T19:31:26.374Z,58.00
2019-04-23T19:34:02.888Z,57.70
2019-04-23T19:36:33.742Z,57.90
2019-04-23T19:38:56.101Z,58.00
2019-04-23T19:41:33.149Z,57.70
2019-04-23T19:43:56.236Z,57.50
2019-04-23T19:46:36.381Z,57.40
2019-04-23T19:49:02.307Z,57.30
2019-04-23T19:56:16.182Z,57.50
2019-04-23T19:58:51.778Z,57.30
2019-04-23T20:06:12.112Z,57.30
2019-04-23T20:11:08.077Z,57.30
2019-04-23T20:13:49.917Z,57.40
2019-04-23T20:18:46.362Z,57.40
2019-04-23T20:20:58.941Z,57.40
2019-04-23T20:23:52.244Z,57.60
2019-04-23T20:28:53.063Z,57.50
2019-04-23T20:31:21.789Z,57.50
2019-04-23T20:36:06.313Z,57.50
2019-04-23T20:41:05.887Z,57.40
2019-04-23T20:43:34.949Z,57.40
2019-04-23T20:46:00.068Z,57.30
2019-04-23T20:48:37.162Z,57.50
2019-04-23T20:50:52.307Z,57.30
2019-04-23T20:53:25.411Z,57.30
2019-04-23T20:56:01.521Z,57.30
2019-04-23T20:58:30.805Z,57.20
2019-04-23T21:03:50.173Z,57.10
2019-04-23T21:09:05.158Z,56.70
2019-04-23T21:11:08.822Z,56.80
2019-04-23T21:16:08.971Z,56.70
2019-04-23T21:18:37.881Z,56.70
2019-04-23T21:20:56.875Z,56.70
2019-04-23T21:23:37.451Z,56.70
2019-04-23T21:25:52.626Z,56.70
2019-04-23T21:31:06.361Z,56.80
2019-04-23T21:33:35.224Z,56.80
2019-04-23T21:39:03.291Z,56.80
2019-04-23T21:44:10.531Z,56.70
2019-04-23T21:46:28.145Z,56.60
2019-04-23T21:51:46.259Z,56.60
2019-04-23T21:53:52.612Z,56.60
2019-04-23T21:58:57.921Z,56.60
2019-04-23T22:04:08.746Z,56.70
2019-04-23T22:06:25.529Z,56.70
2019-04-23T22:08:52.923Z,56.60
2019-04-23T22:11:52.459Z,56.70
2019-04-23T22:16:14.583Z,56.60
2019-04-23T22:18:58.560Z,56.60
2019-04-23T22:21:14.400Z,56.40
2019-04-23T22:23:52.893Z,56.50
2019-04-23T22:28:40.818Z,56.50
2019-04-23T22:31:12.353Z,56.50
2019-04-23T22:33:44.455Z,56.70
2019-04-23T22:36:01.382Z,56.70
2019-04-23T22:38:26.447Z,56.50
2019-04-23T22:40:58.170Z,56.60
2019-04-23T22:43:20.392Z,56.60
2019-04-23T22:46:06.531Z,56.70
2019-04-23T22:48:23.675Z,56.70
2019-04-23T22:50:58.453Z,56.90
2019-04-23T22:56:01.725Z,56.90
2019-04-23T22:58:37.431Z,57.00
2019-04-23T23:01:14.307Z,57.00
2019-04-23T23:03:35.139Z,57.00
2019-04-23T23:08:34.655Z,57.10
2019-04-23T23:10:57.318Z,57.10
2019-04-23T23:13:33.200Z,57.20
2019-04-23T23:15:53.322Z,57.30
2019-04-23T23:18:40.549Z,57.20
2019-04-23T23:20:57.468Z,57.40
2019-04-23T23:23:17.730Z,57.40
2019-04-23T23:25:52.014Z,57.40
2019-04-23T23:30:58.063Z,57.30
2019-04-23T23:33:24.564Z,57.30
2019-04-23T23:40:36.597Z,57.30
2019-04-23T23:43:14.583Z,57.40
2019-04-23T23:50:36.429Z,57.40
2019-04-23T23:53:05.909Z,57.40
2019-04-23T23:55:28.847Z,57.30
2019-04-23T23:58:12.831Z,57.30
